createdAt,value
2023-03-05T00:00:35.446Z,1015.61
2023-03-05T00:01:35.493Z,1015.57
2023-03-05T00:02:35.503Z,1015.56
2023-03-05T00:03:35.683Z,1015.57
2023-03-05T00:04:35.540Z,1015.52
2023-03-05T00:05:35.556Z,1015.52
2023-03-05T00:06:35.581Z,1015.54
2023-03-05T00:07:35.607Z,1015.53
2023-03-05T00:08:35.626Z,1015.56
2023-03-05T00:09:36.040Z,1015.60
2023-03-05T00:10:35.696Z,1015.58
2023-03-05T00:11:35.698Z,1015.54
2023-03-05T00:12:35.718Z,1015.50
2023-03-05T00:13:35.741Z,1015.59
2023-03-05T00:14:35.763Z,1015.49
2023-03-05T00:15:35.840Z,1015.55
2023-03-05T00:16:35.815Z,1015.53
2023-03-05T00:17:35.835Z,1015.49
2023-03-05T00:18:35.858Z,1015.55
2023-03-05T00:19:35.875Z,1015.57
2023-03-05T00:20:35.904Z,1015.53
2023-03-05T00:21:35.925Z,1015.51
2023-03-05T00:22:35.958Z,1015.46
2023-03-05T00:23:35.968Z,1015.50
2023-03-05T00:24:35.994Z,1015.49
2023-03-05T00:25:36.016Z,1015.46
2023-03-05T00:26:36.063Z,1015.44
2023-03-05T00:27:36.062Z,1015.44
2023-03-05T00:28:36.086Z,1015.49
2023-03-05T00:29:38.736Z,1015.47
2023-03-05T00:30:36.132Z,1015.51
2023-03-05T00:31:36.428Z,1015.50
2023-03-05T00:32:36.329Z,1015.50
2023-03-05T00:33:36.203Z,1015.47
2023-03-05T00:34:36.252Z,1015.50
2023-03-05T00:35:36.298Z,1015.46
2023-03-05T00:36:36.279Z,1015.47
2023-03-05T00:37:36.295Z,1015.47
2023-03-05T00:38:36.318Z,1015.49
2023-03-05T00:39:36.339Z,1015.46
2023-03-05T00:40:36.406Z,1015.47
2023-03-05T00:41:36.391Z,1015.43
2023-03-05T00:42:36.435Z,1015.41
2023-03-05T00:43:36.432Z,1015.41
2023-03-05T00:44:36.459Z,1015.42
2023-03-05T00:45:36.481Z,1015.43
2023-03-05T00:46:36.582Z,1015.41
2023-03-05T00:47:36.591Z,1015.38
2023-03-05T00:48:36.555Z,1015.40
2023-03-05T00:49:36.574Z,1015.39
2023-03-05T00:50:36.595Z,1015.38
2023-03-05T00:51:36.619Z,1015.38
2023-03-05T00:52:36.644Z,1015.39
2023-03-05T00:53:36.664Z,1015.39
2023-03-05T00:54:36.694Z,1015.35
2023-03-05T00:55:36.710Z,1015.32
2023-03-05T00:56:36.741Z,1015.32
2023-03-05T00:57:36.756Z,1015.31
2023-03-05T00:58:36.804Z,1015.32
2023-03-05T00:59:36.809Z,1015.31
2023-03-05T01:00:36.825Z,1015.28
2023-03-05T01:01:36.944Z,1015.26
2023-03-05T01:02:36.873Z,1015.25
2023-03-05T01:03:36.908Z,1015.22
2023-03-05T01:04:37.061Z,1015.19
2023-03-05T01:05:37.026Z,1015.15
2023-03-05T01:06:36.954Z,1015.20
2023-03-05T01:07:36.975Z,1015.19
2023-03-05T01:08:37.007Z,1015.18
2023-03-05T01:09:37.024Z,1015.12
2023-03-05T01:10:37.045Z,1015.13
2023-03-05T01:11:37.067Z,1015.15
2023-03-05T01:12:37.087Z,1015.15
2023-03-05T01:13:37.110Z,1015.16
2023-03-05T01:14:37.160Z,1015.13
2023-03-05T01:15:37.155Z,1015.11
2023-03-05T01:16:37.178Z,1015.13
2023-03-05T01:17:37.197Z,1015.11
2023-03-05T01:18:37.239Z,1015.11
2023-03-05T01:19:37.246Z,1015.14
2023-03-05T01:20:37.270Z,1015.10
2023-03-05T01:21:37.288Z,1015.16
2023-03-05T01:22:37.314Z,1015.13
2023-03-05T01:23:37.398Z,1015.12
2023-03-05T01:24:37.359Z,1015.09
2023-03-05T01:25:37.482Z,1015.09
2023-03-05T01:26:37.405Z,1015.12
2023-03-05T01:27:37.424Z,1015.05
2023-03-05T01:28:37.455Z,1015.06
2023-03-05T01:29:37.472Z,1015.02
2023-03-05T01:30:37.536Z,1015.02
2023-03-05T01:31:37.597Z,1014.97
2023-03-05T01:32:37.592Z,1014.94
2023-03-05T01:33:37.592Z,1014.94
2023-03-05T01:34:37.594Z,1014.91
2023-03-05T01:35:37.628Z,1014.89
2023-03-05T01:36:37.643Z,1014.89
2023-03-05T01:37:37.660Z,1014.86
2023-03-05T01:38:37.681Z,1014.83
2023-03-05T01:39:37.707Z,1014.83
2023-03-05T01:40:37.730Z,1014.84
2023-03-05T01:41:37.751Z,1014.85
2023-03-05T01:42:37.775Z,1014.84
2023-03-05T01:43:37.810Z,1014.84
2023-03-05T01:44:37.822Z,1014.82
2023-03-05T01:45:37.892Z,1014.79
2023-03-05T01:46:37.890Z,1014.78
2023-03-05T01:47:37.897Z,1014.77
2023-03-05T01:48:37.916Z,1014.79
2023-03-05T01:49:37.943Z,1014.79
2023-03-05T01:50:37.965Z,1014.76
2023-03-05T01:51:37.997Z,1014.76
2023-03-05T01:52:38.012Z,1014.73
2023-03-05T01:53:38.030Z,1014.78
2023-03-05T01:54:38.055Z,1014.77
2023-03-05T01:55:38.075Z,1014.73
2023-03-05T01:56:38.102Z,1014.76
2023-03-05T01:57:38.134Z,1014.74
2023-03-05T01:58:38.157Z,1014.70
2023-03-05T01:59:38.168Z,1014.70
2023-03-05T02:00:38.193Z,1014.65
2023-03-05T02:01:38.212Z,1014.65
2023-03-05T02:02:38.337Z,1014.67
2023-03-05T02:03:38.381Z,1014.64
2023-03-05T02:04:38.383Z,1014.63
2023-03-05T02:05:38.305Z,1014.61
2023-03-05T02:06:38.334Z,1014.62
2023-03-05T02:07:38.350Z,1014.57
2023-03-05T02:08:38.375Z,1014.61
2023-03-05T02:09:38.397Z,1014.57
2023-03-05T02:10:38.427Z,1014.54
2023-03-05T02:11:38.446Z,1014.54
2023-03-05T02:12:38.473Z,1014.57
2023-03-05T02:13:38.492Z,1014.52
2023-03-05T02:14:38.521Z,1014.53
2023-03-05T02:15:38.554Z,1014.53
2023-03-05T02:16:38.656Z,1014.50
2023-03-05T02:17:38.586Z,1014.59
2023-03-05T02:18:38.634Z,1014.55
2023-03-05T02:19:38.636Z,1014.52
2023-03-05T02:20:38.658Z,1014.48
2023-03-05T02:21:38.684Z,1014.48
2023-03-05T02:22:38.704Z,1014.50
2023-03-05T02:23:38.735Z,1014.42
2023-03-05T02:24:38.761Z,1014.46
2023-03-05T02:25:38.772Z,1014.41
2023-03-05T02:26:38.797Z,1014.48
2023-03-05T02:27:38.817Z,1014.46
2023-03-05T02:28:38.841Z,1014.40
2023-03-05T02:29:38.879Z,1014.42
2023-03-05T02:30:38.903Z,1014.35
2023-03-05T02:31:39.021Z,1014.42
2023-03-05T02:32:39.008Z,1014.35
2023-03-05T02:33:38.957Z,1014.36
2023-03-05T02:34:39.009Z,1014.32
2023-03-05T02:35:39.021Z,1014.28
2023-03-05T02:36:39.029Z,1014.33
2023-03-05T02:37:39.052Z,1014.31
2023-03-05T02:38:39.078Z,1014.28
2023-03-05T02:39:39.094Z,1014.30
2023-03-05T02:40:39.119Z,1014.20
2023-03-05T02:41:39.150Z,1014.22
2023-03-05T02:42:39.167Z,1014.19
2023-03-05T02:43:39.191Z,1014.25
2023-03-05T02:44:39.239Z,1014.25
2023-03-05T02:45:39.311Z,1014.24
2023-03-05T02:46:39.260Z,1014.25
2023-03-05T02:47:39.281Z,1014.24
2023-03-05T02:48:39.307Z,1014.21
2023-03-05T02:49:39.326Z,1014.18
2023-03-05T02:50:39.370Z,1014.23
2023-03-05T02:51:39.373Z,1014.21
2023-03-05T02:52:39.469Z,1014.21
2023-03-05T02:53:39.416Z,1014.18
2023-03-05T02:54:39.446Z,1014.15
2023-03-05T02:55:39.464Z,1014.15
2023-03-05T02:56:39.511Z,1014.13
2023-03-05T02:57:39.524Z,1014.09
2023-03-05T02:58:39.567Z,1014.14
2023-03-05T02:59:39.683Z,1014.11
2023-03-05T03:00:39.585Z,1014.10
2023-03-05T03:01:39.662Z,1014.11
2023-03-05T03:02:39.631Z,1014.13
2023-03-05T03:03:39.649Z,1014.11
2023-03-05T03:04:39.714Z,1014.12
2023-03-05T03:05:39.698Z,1014.10
2023-03-05T03:06:39.782Z,1014.08
2023-03-05T03:07:39.755Z,1014.10
2023-03-05T03:08:39.775Z,1014.08
2023-03-05T03:09:39.789Z,1014.09
2023-03-05T03:10:39.813Z,1014.05
2023-03-05T03:11:39.836Z,1014.06
2023-03-05T03:12:39.860Z,1014.06
2023-03-05T03:13:39.898Z,1014.12
2023-03-05T03:14:39.913Z,1014.06
2023-03-05T03:15:39.929Z,1014.03
2023-03-05T03:16:40.005Z,1014.06
2023-03-05T03:17:39.970Z,1014.04
2023-03-05T03:18:40.005Z,1014.06
2023-03-05T03:19:40.041Z,1014.04
2023-03-05T03:20:40.055Z,1013.99
2023-03-05T03:21:40.068Z,1014.01
2023-03-05T03:22:40.124Z,1014.00
2023-03-05T03:23:40.116Z,1013.97
2023-03-05T03:24:40.145Z,1013.98
2023-03-05T03:25:40.182Z,1013.93
2023-03-05T03:26:40.188Z,1013.94
2023-03-05T03:27:40.212Z,1013.92
2023-03-05T03:28:40.232Z,1013.96
2023-03-05T03:29:40.258Z,1013.94
2023-03-05T03:30:40.309Z,1013.92
2023-03-05T03:31:40.312Z,1013.89
2023-03-05T03:32:40.326Z,1013.92
2023-03-05T03:33:40.352Z,1013.87
2023-03-05T03:34:40.371Z,1013.86
2023-03-05T03:35:40.409Z,1013.81
2023-03-05T03:36:40.420Z,1013.79
2023-03-05T03:37:40.441Z,1013.84
2023-03-05T03:38:40.500Z,1013.75
2023-03-05T03:39:40.488Z,1013.75
2023-03-05T03:40:40.516Z,1013.76
2023-03-05T03:41:40.539Z,1013.74
2023-03-05T03:42:40.564Z,1013.74
2023-03-05T03:43:40.586Z,1013.74
2023-03-05T03:44:40.636Z,1013.71
2023-03-05T03:45:40.630Z,1013.70
2023-03-05T03:46:40.660Z,1013.71
2023-03-05T03:47:40.676Z,1013.70
2023-03-05T03:48:40.698Z,1013.64
2023-03-05T03:49:40.725Z,1013.70
2023-03-05T03:50:40.744Z,1013.68
2023-03-05T03:51:40.768Z,1013.63
2023-03-05T03:52:40.789Z,1013.66
2023-03-05T03:53:40.816Z,1013.64
2023-03-05T03:54:40.861Z,1013.66
2023-03-05T03:55:40.861Z,1013.69
2023-03-05T03:56:40.889Z,1013.68
2023-03-05T03:57:40.915Z,1013.64
2023-03-05T03:58:40.928Z,1013.65
2023-03-05T03:59:40.955Z,1013.62
2023-03-05T04:00:40.974Z,1013.62
2023-03-05T04:01:41.005Z,1013.62
2023-03-05T04:02:41.117Z,1013.57
2023-03-05T04:03:41.060Z,1013.59
2023-03-05T04:04:41.182Z,1013.56
2023-03-05T04:05:41.106Z,1013.53
2023-03-05T04:06:41.120Z,1013.51
2023-03-05T04:07:41.137Z,1013.54
2023-03-05T04:08:41.164Z,1013.56
2023-03-05T04:09:41.184Z,1013.49
2023-03-05T04:10:41.240Z,1013.51
2023-03-05T04:11:41.240Z,1013.52
2023-03-05T04:12:41.260Z,1013.50
2023-03-05T04:13:41.289Z,1013.44
2023-03-05T04:14:41.298Z,1013.43
2023-03-05T04:15:41.340Z,1013.43
2023-03-05T04:16:41.347Z,1013.36
2023-03-05T04:17:41.370Z,1013.35
2023-03-05T04:18:41.387Z,1013.34
2023-03-05T04:19:41.416Z,1013.34
2023-03-05T04:20:41.434Z,1013.29
2023-03-05T04:21:41.477Z,1013.31
2023-03-05T04:22:41.483Z,1013.30
2023-03-05T04:23:41.518Z,1013.29
2023-03-05T04:24:41.526Z,1013.35
2023-03-05T04:25:41.551Z,1013.35
2023-03-05T04:26:41.603Z,1013.31
2023-03-05T04:27:41.597Z,1013.31
2023-03-05T04:28:41.617Z,1013.32
2023-03-05T04:29:41.645Z,1013.31
2023-03-05T04:30:41.664Z,1013.29
2023-03-05T04:31:41.691Z,1013.33
2023-03-05T04:32:41.713Z,1013.35
2023-03-05T04:33:41.731Z,1013.29
2023-03-05T04:34:41.754Z,1013.28
2023-03-05T04:35:41.827Z,1013.30
2023-03-05T04:36:41.795Z,1013.28
2023-03-05T04:37:41.828Z,1013.28
2023-03-05T04:38:41.845Z,1013.27
2023-03-05T04:39:41.869Z,1013.26
2023-03-05T04:40:41.897Z,1013.26
2023-03-05T04:41:41.916Z,1013.25
2023-03-05T04:42:41.955Z,1013.24
2023-03-05T04:43:41.962Z,1013.24
2023-03-05T04:44:41.981Z,1013.22
2023-03-05T04:45:42.004Z,1013.20
2023-03-05T04:46:42.070Z,1013.21
2023-03-05T04:47:42.091Z,1013.21
2023-03-05T04:48:42.075Z,1013.19
2023-03-05T04:49:42.099Z,1013.21
2023-03-05T04:50:42.119Z,1013.15
2023-03-05T04:51:42.143Z,1013.15
2023-03-05T04:52:42.163Z,1013.12
2023-03-05T04:53:42.194Z,1013.13
2023-03-05T04:54:42.209Z,1013.13
2023-03-05T04:55:42.233Z,1013.19
2023-03-05T04:56:42.272Z,1013.17
2023-03-05T04:57:42.278Z,1013.13
2023-03-05T04:58:42.320Z,1013.11
2023-03-05T04:59:42.334Z,1013.11
2023-03-05T05:00:42.345Z,1013.10
2023-03-05T05:01:42.416Z,1013.07
2023-03-05T05:02:42.485Z,1013.05
2023-03-05T05:03:42.416Z,1013.05
2023-03-05T05:04:42.436Z,1013.10
2023-03-05T05:05:42.466Z,1013.08
2023-03-05T05:06:42.489Z,1013.06
2023-03-05T05:07:42.508Z,1013.03
2023-03-05T05:08:42.529Z,1013.10
2023-03-05T05:09:42.557Z,1012.98
2023-03-05T05:10:42.587Z,1013.03
2023-03-05T05:11:42.599Z,1013.04
2023-03-05T05:12:42.623Z,1013.00
2023-03-05T05:13:42.652Z,1013.04
2023-03-05T05:14:42.685Z,1013.01
2023-03-05T05:15:42.692Z,1012.98
2023-03-05T05:16:42.712Z,1013.00
2023-03-05T05:17:42.737Z,1012.97
2023-03-05T05:18:42.763Z,1012.92
2023-03-05T05:19:42.923Z,1012.96
2023-03-05T05:20:42.814Z,1012.99
2023-03-05T05:21:42.829Z,1012.94
2023-03-05T05:22:42.853Z,1012.90
2023-03-05T05:23:42.885Z,1012.91
2023-03-05T05:24:42.898Z,1012.94
2023-03-05T05:25:42.920Z,1012.93
2023-03-05T05:26:42.942Z,1012.95
2023-03-05T05:27:42.967Z,1012.89
2023-03-05T05:28:42.998Z,1012.83
2023-03-05T05:29:43.013Z,1012.87
2023-03-05T05:30:43.052Z,1012.89
2023-03-05T05:31:43.106Z,1012.85
2023-03-05T05:32:43.163Z,1012.82
2023-03-05T05:33:43.104Z,1012.86
2023-03-05T05:34:43.124Z,1012.86
2023-03-05T05:35:43.189Z,1012.82
2023-03-05T05:36:43.171Z,1012.93
2023-03-05T05:37:43.195Z,1012.90
2023-03-05T05:38:43.219Z,1012.88
2023-03-05T05:39:43.243Z,1012.85
2023-03-05T05:40:43.272Z,1012.87
2023-03-05T05:41:43.291Z,1012.87
2023-03-05T05:42:43.312Z,1012.83
2023-03-05T05:43:43.333Z,1012.88
2023-03-05T05:44:43.357Z,1012.84
2023-03-05T05:45:43.549Z,1012.79
2023-03-05T05:46:43.509Z,1012.81
2023-03-05T05:47:43.428Z,1012.85
2023-03-05T05:48:43.453Z,1012.86
2023-03-05T05:49:43.472Z,1012.89
2023-03-05T05:50:43.497Z,1012.85
2023-03-05T05:51:43.522Z,1012.88
2023-03-05T05:52:43.542Z,1012.89
2023-03-05T05:53:43.572Z,1012.85
2023-03-05T05:54:43.602Z,1012.83
2023-03-05T05:55:43.611Z,1012.88
2023-03-05T05:56:43.637Z,1012.87
2023-03-05T05:57:43.657Z,1012.87
2023-03-05T05:58:43.677Z,1012.91
2023-03-05T05:59:43.713Z,1012.86
2023-03-05T06:00:43.722Z,1012.91
2023-03-05T06:01:43.825Z,1012.84
2023-03-05T06:02:43.844Z,1012.85
2023-03-05T06:03:43.798Z,1012.83
2023-03-05T06:04:43.813Z,1012.88
2023-03-05T06:05:43.837Z,1012.80
2023-03-05T06:06:43.862Z,1012.84
2023-03-05T06:07:43.921Z,1012.75
2023-03-05T06:08:43.907Z,1012.76
2023-03-05T06:09:43.929Z,1012.76
2023-03-05T06:10:43.950Z,1012.77
2023-03-05T06:11:43.979Z,1012.74
2023-03-05T06:12:43.998Z,1012.75
2023-03-05T06:13:44.022Z,1012.77
2023-03-05T06:14:44.045Z,1012.75
2023-03-05T06:15:44.068Z,1012.73
2023-03-05T06:16:44.130Z,1012.75
2023-03-05T06:17:44.127Z,1012.74
2023-03-05T06:18:44.155Z,1012.73
2023-03-05T06:19:44.157Z,1012.77
2023-03-05T06:20:44.178Z,1012.77
2023-03-05T06:21:44.210Z,1012.76
2023-03-05T06:22:44.226Z,1012.76
2023-03-05T06:23:44.247Z,1012.79
2023-03-05T06:24:44.270Z,1012.78
2023-03-05T06:25:44.300Z,1012.76
2023-03-05T06:26:44.315Z,1012.77
2023-03-05T06:27:44.349Z,1012.80
2023-03-05T06:28:44.368Z,1012.82
2023-03-05T06:29:44.399Z,1012.82
2023-03-05T06:30:44.429Z,1012.83
2023-03-05T06:31:44.435Z,1012.84
2023-03-05T06:32:44.469Z,1012.81
2023-03-05T06:33:44.481Z,1012.82
2023-03-05T06:34:44.566Z,1012.82
2023-03-05T06:35:44.580Z,1012.73
2023-03-05T06:36:44.567Z,1012.83
2023-03-05T06:37:44.572Z,1012.76
2023-03-05T06:38:44.621Z,1012.75
2023-03-05T06:39:44.617Z,1012.72
2023-03-05T06:40:44.649Z,1012.68
2023-03-05T06:41:44.662Z,1012.71
2023-03-05T06:42:44.685Z,1012.67
2023-03-05T06:43:44.716Z,1012.67
2023-03-05T06:44:47.066Z,1012.64
2023-03-05T06:45:44.831Z,1012.67
2023-03-05T06:46:44.778Z,1012.66
2023-03-05T06:47:44.800Z,1012.65
2023-03-05T06:48:44.834Z,1012.65
2023-03-05T06:49:44.853Z,1012.64
2023-03-05T06:50:44.886Z,1012.64
2023-03-05T06:51:44.898Z,1012.71
2023-03-05T06:52:44.917Z,1012.65
2023-03-05T06:53:44.950Z,1012.67
2023-03-05T06:54:44.959Z,1012.69
2023-03-05T06:55:44.985Z,1012.64
2023-03-05T06:56:45.018Z,1012.69
2023-03-05T06:57:45.053Z,1012.65
2023-03-05T06:58:45.059Z,1012.70
2023-03-05T06:59:45.078Z,1012.65
2023-03-05T07:00:45.104Z,1012.68
2023-03-05T07:01:45.122Z,1012.66
2023-03-05T07:02:45.181Z,1012.64
2023-03-05T07:03:45.188Z,1012.61
2023-03-05T07:04:45.192Z,1012.62
2023-03-05T07:05:45.224Z,1012.59
2023-03-05T07:06:45.258Z,1012.61
2023-03-05T07:07:45.263Z,1012.62
2023-03-05T07:08:45.284Z,1012.62
2023-03-05T07:09:45.308Z,1012.59
2023-03-05T07:10:45.337Z,1012.59
2023-03-05T07:11:45.359Z,1012.56
2023-03-05T07:12:45.376Z,1012.57
2023-03-05T07:13:45.401Z,1012.57
2023-03-05T07:14:45.423Z,1012.60
2023-03-05T07:15:45.476Z,1012.58
2023-03-05T07:16:45.473Z,1012.63
2023-03-05T07:17:45.494Z,1012.61
2023-03-05T07:18:45.515Z,1012.59
2023-03-05T07:19:45.552Z,1012.62
2023-03-05T07:20:45.569Z,1012.59
2023-03-05T07:21:45.591Z,1012.57
2023-03-05T07:22:45.638Z,1012.54
2023-03-05T07:23:45.674Z,1012.49
2023-03-05T07:24:45.657Z,1012.55
2023-03-05T07:25:45.682Z,1012.50
2023-03-05T07:26:47.435Z,1012.52
2023-03-05T07:27:45.729Z,1012.54
2023-03-05T07:28:45.751Z,1012.44
2023-03-05T07:29:45.774Z,1012.44
2023-03-05T07:30:45.978Z,1012.46
2023-03-05T07:31:45.820Z,1012.51
2023-03-05T07:32:45.843Z,1012.49
2023-03-05T07:33:45.872Z,1012.51
2023-03-05T07:34:45.890Z,1012.46
2023-03-05T07:35:45.924Z,1012.50
2023-03-05T07:36:45.935Z,1012.51
2023-03-05T07:37:45.972Z,1012.47
2023-03-05T07:38:46.005Z,1012.46
2023-03-05T07:39:47.281Z,1012.50
2023-03-05T07:40:46.032Z,1012.48
2023-03-05T07:41:46.058Z,1012.46
2023-03-05T07:42:46.080Z,1012.44
2023-03-05T07:43:46.119Z,1012.52
2023-03-05T07:44:46.127Z,1012.44
2023-03-05T07:45:46.259Z,1012.39
2023-03-05T07:46:46.178Z,1012.45
2023-03-05T07:47:46.195Z,1012.44
2023-03-05T07:48:46.223Z,1012.45
2023-03-05T07:49:46.247Z,1012.40
2023-03-05T07:50:46.273Z,1012.45
2023-03-05T07:51:31.690Z,1012.45
2023-03-05T07:52:31.715Z,1012.43
2023-03-05T07:53:31.739Z,1012.50
2023-03-05T07:54:31.786Z,1012.50
2023-03-05T07:55:31.784Z,1012.45
2023-03-05T07:56:32.031Z,1012.52
2023-03-05T07:57:31.866Z,1012.41
2023-03-05T07:58:31.873Z,1012.43
2023-03-05T07:59:31.879Z,1012.44
2023-03-05T08:00:31.907Z,1012.44
2023-03-05T08:01:31.928Z,1012.41
2023-03-05T08:02:32.050Z,1012.37
2023-03-05T08:03:31.974Z,1012.39
2023-03-05T08:04:32.102Z,1012.41
2023-03-05T08:05:32.022Z,1012.42
2023-03-05T08:06:32.047Z,1012.37
2023-03-05T08:07:32.072Z,1012.36
2023-03-05T08:08:32.097Z,1012.38
2023-03-05T08:09:32.121Z,1012.37
2023-03-05T08:10:32.162Z,1012.31
2023-03-05T08:11:32.169Z,1012.30
2023-03-05T08:12:32.194Z,1012.28
2023-03-05T08:13:32.216Z,1012.26
2023-03-05T08:14:32.243Z,1012.30
2023-03-05T08:15:32.265Z,1012.32
2023-03-05T08:16:32.285Z,1012.28
2023-03-05T08:17:32.312Z,1012.26
2023-03-05T08:18:32.335Z,1012.25
2023-03-05T08:19:32.374Z,1012.27
2023-03-05T08:20:32.382Z,1012.24
2023-03-05T08:21:32.405Z,1012.18
2023-03-05T08:22:32.428Z,1012.22
2023-03-05T08:23:32.453Z,1012.20
2023-03-05T08:24:32.476Z,1012.20
2023-03-05T08:25:32.506Z,1012.20
2023-03-05T08:26:32.542Z,1012.21
2023-03-05T08:27:32.546Z,1012.20
2023-03-05T08:28:34.405Z,1012.24
2023-03-05T08:29:32.594Z,1012.20
2023-03-05T08:30:32.622Z,1012.20
2023-03-05T08:31:32.694Z,1012.17
2023-03-05T08:32:32.689Z,1012.16
2023-03-05T08:33:35.229Z,1012.15
2023-03-05T08:34:32.719Z,1012.17
2023-03-05T08:35:32.821Z,1012.19
2023-03-05T08:36:32.768Z,1012.16
2023-03-05T08:37:32.781Z,1012.13
2023-03-05T08:38:32.812Z,1012.15
2023-03-05T08:39:32.831Z,1012.14
2023-03-05T08:40:32.865Z,1012.14
2023-03-05T08:41:32.875Z,1012.15
2023-03-05T08:42:32.924Z,1012.12
2023-03-05T08:43:32.924Z,1012.13
2023-03-05T08:44:32.949Z,1012.09
2023-03-05T08:45:32.971Z,1012.09
2023-03-05T08:46:33.034Z,1012.12
2023-03-05T08:47:33.018Z,1012.07
2023-03-05T08:48:33.045Z,1012.12
2023-03-05T08:49:33.069Z,1012.01
2023-03-05T08:50:33.104Z,1011.99
2023-03-05T08:51:33.115Z,1011.99
2023-03-05T08:52:33.144Z,1011.99
2023-03-05T08:53:33.160Z,1011.97
2023-03-05T08:54:33.187Z,1011.98
2023-03-05T08:55:33.219Z,1012.03
2023-03-05T08:56:33.234Z,1012.01
2023-03-05T08:57:33.259Z,1011.96
2023-03-05T08:58:33.299Z,1011.98
2023-03-05T08:59:33.303Z,1011.97
2023-03-05T09:00:33.333Z,1011.93
2023-03-05T09:01:33.394Z,1011.94
2023-03-05T09:02:33.392Z,1011.97
2023-03-05T09:03:33.500Z,1011.93
2023-03-05T09:04:33.426Z,1011.96
2023-03-05T09:05:33.448Z,1011.91
2023-03-05T09:06:33.474Z,1011.91
2023-03-05T09:07:33.498Z,1011.87
2023-03-05T09:08:33.519Z,1011.90
2023-03-05T09:09:33.543Z,1011.90
2023-03-05T09:10:33.569Z,1011.86
2023-03-05T09:11:33.590Z,1011.87
2023-03-05T09:12:33.617Z,1011.91
2023-03-05T09:13:33.667Z,1011.85
2023-03-05T09:14:33.685Z,1011.84
2023-03-05T09:15:33.684Z,1011.82
2023-03-05T09:16:33.814Z,1011.80
2023-03-05T09:17:33.734Z,1011.81
2023-03-05T09:18:33.760Z,1011.83
2023-03-05T09:19:33.785Z,1011.83
2023-03-05T09:20:33.810Z,1011.81
2023-03-05T09:21:33.828Z,1011.84
2023-03-05T09:22:33.852Z,1011.77
2023-03-05T09:23:33.879Z,1011.75
2023-03-05T09:24:33.900Z,1011.78
2023-03-05T09:25:33.926Z,1011.78
2023-03-05T09:26:33.947Z,1011.75
2023-03-05T09:27:33.972Z,1011.74
2023-03-05T09:28:33.998Z,1011.69
2023-03-05T09:29:34.018Z,1011.71
2023-03-05T09:30:34.068Z,1011.74
2023-03-05T09:31:34.094Z,1011.75
2023-03-05T09:32:34.183Z,1011.63
2023-03-05T09:33:34.122Z,1011.69
2023-03-05T09:34:34.142Z,1011.65
2023-03-05T09:35:34.201Z,1011.68
2023-03-05T09:36:34.192Z,1011.67
2023-03-05T09:37:34.245Z,1011.69
2023-03-05T09:38:34.247Z,1011.65
2023-03-05T09:39:34.259Z,1011.66
2023-03-05T09:40:34.291Z,1011.60
2023-03-05T09:41:34.317Z,1011.62
2023-03-05T09:42:34.337Z,1011.62
2023-03-05T09:43:34.407Z,1011.60
2023-03-05T09:44:34.410Z,1011.58
2023-03-05T09:45:34.442Z,1011.54
2023-03-05T09:46:34.452Z,1011.55
2023-03-05T09:47:34.453Z,1011.56
2023-03-05T09:48:34.477Z,1011.48
2023-03-05T09:49:34.511Z,1011.52
2023-03-05T09:50:34.533Z,1011.49
2023-03-05T09:51:34.550Z,1011.54
2023-03-05T09:52:34.581Z,1011.48
2023-03-05T09:53:34.605Z,1011.48
2023-03-05T09:54:34.625Z,1011.43
2023-03-05T09:55:34.647Z,1011.40
2023-03-05T09:56:34.694Z,1011.38
2023-03-05T09:57:34.696Z,1011.35
2023-03-05T09:58:34.739Z,1011.35
2023-03-05T09:59:34.746Z,1011.38
2023-03-05T10:00:34.786Z,1011.36
2023-03-05T10:01:34.799Z,1011.36
2023-03-05T10:02:34.843Z,1011.25
2023-03-05T10:03:35.121Z,1011.33
2023-03-05T10:04:34.876Z,1011.33
2023-03-05T10:05:34.893Z,1011.26
2023-03-05T10:06:34.927Z,1011.25
2023-03-05T10:07:34.947Z,1011.19
2023-03-05T10:08:34.995Z,1011.26
2023-03-05T10:09:36.896Z,1011.24
2023-03-05T10:10:35.053Z,1011.19
2023-03-05T10:11:35.057Z,1011.21
2023-03-05T10:12:35.070Z,1011.23
2023-03-05T10:13:35.094Z,1011.17
2023-03-05T10:14:35.120Z,1011.16
2023-03-05T10:15:35.142Z,1011.13
2023-03-05T10:16:35.218Z,1011.15
2023-03-05T10:17:35.191Z,1011.11
2023-03-05T10:18:35.243Z,1011.11
2023-03-05T10:19:35.241Z,1011.17
2023-03-05T10:20:35.268Z,1011.19
2023-03-05T10:21:35.289Z,1011.16
2023-03-05T10:22:35.315Z,1011.18
2023-03-05T10:23:35.343Z,1011.14
2023-03-05T10:24:35.365Z,1011.10
2023-03-05T10:25:35.403Z,1011.10
2023-03-05T10:26:35.415Z,1011.10
2023-03-05T10:27:35.431Z,1011.14
2023-03-05T10:28:35.461Z,1011.12
2023-03-05T10:29:35.484Z,1011.15
2023-03-05T10:30:35.507Z,1011.12
2023-03-05T10:31:35.579Z,1011.07
2023-03-05T10:32:35.607Z,1011.06
2023-03-05T10:33:35.580Z,1011.07
2023-03-05T10:34:35.637Z,1011.10
2023-03-05T10:35:35.663Z,1011.07
2023-03-05T10:36:35.652Z,1011.06
2023-03-05T10:37:35.675Z,1011.10
2023-03-05T10:38:35.700Z,1011.09
2023-03-05T10:39:35.722Z,1011.08
2023-03-05T10:40:35.752Z,1011.09
2023-03-05T10:41:35.788Z,1011.09
2023-03-05T10:42:35.797Z,1011.08
2023-03-05T10:43:35.817Z,1011.05
2023-03-05T10:44:35.843Z,1011.06
2023-03-05T10:45:35.929Z,1011.09
2023-03-05T10:46:35.896Z,1011.08
2023-03-05T10:47:35.912Z,1011.05
2023-03-05T10:48:35.949Z,1011.07
2023-03-05T10:49:35.958Z,1011.03
2023-03-05T10:50:36.002Z,1011.05
2023-03-05T10:51:36.009Z,1011.04
2023-03-05T10:52:36.032Z,1010.98
2023-03-05T10:53:36.051Z,1011.01
2023-03-05T10:54:36.094Z,1010.93
2023-03-05T10:55:36.103Z,1010.97
2023-03-05T10:56:36.126Z,1010.99
2023-03-05T10:57:36.146Z,1010.99
2023-03-05T10:58:36.183Z,1010.93
2023-03-05T10:59:36.194Z,1010.95
2023-03-05T11:00:36.219Z,1010.97
2023-03-05T11:01:36.277Z,1010.94
2023-03-05T11:02:36.302Z,1010.93
2023-03-05T11:03:36.288Z,1010.86
2023-03-05T11:04:36.321Z,1010.90
2023-03-05T11:05:36.333Z,1010.86
2023-03-05T11:06:36.417Z,1010.86
2023-03-05T11:07:36.382Z,1010.84
2023-03-05T11:08:36.423Z,1010.83
2023-03-05T11:09:36.431Z,1010.82
2023-03-05T11:10:36.462Z,1010.79
2023-03-05T11:11:36.474Z,1010.83
2023-03-05T11:12:36.500Z,1010.81
2023-03-05T11:13:36.527Z,1010.82
2023-03-05T11:14:36.547Z,1010.82
2023-03-05T11:15:36.609Z,1010.78
2023-03-05T11:16:36.594Z,1010.80
2023-03-05T11:17:36.614Z,1010.78
2023-03-05T11:18:36.640Z,1010.76
2023-03-05T11:19:36.666Z,1010.74
2023-03-05T11:20:36.687Z,1010.75
2023-03-05T11:21:36.713Z,1010.79
2023-03-05T11:22:36.753Z,1010.72
2023-03-05T11:23:36.755Z,1010.72
2023-03-05T11:24:36.785Z,1010.64
2023-03-05T11:25:36.808Z,1010.72
2023-03-05T11:26:36.832Z,1010.66
2023-03-05T11:27:36.851Z,1010.65
2023-03-05T11:28:36.891Z,1010.65
2023-03-05T11:29:36.899Z,1010.63
2023-03-05T11:30:37.020Z,1010.61
2023-03-05T11:31:36.946Z,1010.64
2023-03-05T11:32:36.985Z,1010.67
2023-03-05T11:33:37.006Z,1010.58
2023-03-05T11:34:37.016Z,1010.63
2023-03-05T11:35:37.102Z,1010.63
2023-03-05T11:36:37.074Z,1010.64
2023-03-05T11:37:37.090Z,1010.64
2023-03-05T11:38:37.134Z,1010.66
2023-03-05T11:39:37.137Z,1010.57
2023-03-05T11:40:37.166Z,1010.58
2023-03-05T11:41:37.184Z,1010.55
2023-03-05T11:42:37.209Z,1010.57
2023-03-05T11:43:37.230Z,1010.56
2023-03-05T11:44:37.291Z,1010.53
2023-03-05T11:45:37.287Z,1010.53
2023-03-05T11:46:37.359Z,1010.54
2023-03-05T11:47:37.331Z,1010.53
2023-03-05T11:48:37.378Z,1010.45
2023-03-05T11:49:37.373Z,1010.44
2023-03-05T11:50:37.401Z,1010.47
2023-03-05T11:51:37.429Z,1010.45
2023-03-05T11:52:37.449Z,1010.48
2023-03-05T11:53:37.475Z,1010.46
2023-03-05T11:54:37.550Z,1010.40
2023-03-05T11:55:37.551Z,1010.40
2023-03-05T11:56:37.551Z,1010.37
2023-03-05T11:57:37.570Z,1010.34
2023-03-05T11:58:37.595Z,1010.37
2023-03-05T11:59:37.620Z,1010.36
2023-03-05T12:00:37.648Z,1010.31
2023-03-05T12:01:37.666Z,1010.28
2023-03-05T12:02:37.751Z,1010.26
2023-03-05T12:03:37.741Z,1010.27
2023-03-05T12:04:37.745Z,1010.24
2023-03-05T12:05:37.765Z,1010.22